Nenzel, Nebraska
Current Conditions -  °F | °C
As of 10:52 PM on Wednesday 28 Jan 2015 (Local Time) from KVTN Reporting Station
Overcast Overcast  
Wind Chill: 26°   Ceiling: 2500
Heat Index: 37°   Visibility: 10mi
Dew Point: 27°   Wind: 21mph
Humidity: 67%   Direction: 330°NNW
Pressure: 30.23"   Gusts: 35mph
Location:  42.93°N, 101.1°W
Report Text: KVTN 290552Z AUTO 33018G30KT 10SM OVC025 03/M03 A3023 RMK AO2 PK WND 33038/0458 SLP246 T00281028 10122 20022 401670006 51036
Loading
Personal Weather Stations






























Interactive Weather Map New forecast layout! Learn more

10-Day Weather Forecast

Advertisements
Track Severe Weather on mobile